Solon Springs, Wisconsin
Current Conditions -  °F | °C
As of 9:35 PM on Wednesday 22 Oct 2014 (Local Time) from KOLG Reporting Station
Scattered Clouds Scattered Clouds  
Wind Chill: 52°   Ceiling: Unl
Heat Index: 52°   Visibility: 10mi
Dew Point: 34°   Wind: 6mph
Humidity: 50%   Direction: 180°S
Pressure: 30.06"   Gusts: NA
Location:  46.35°N, 91.82°W
Report Text: KOLG 230235Z AUTO 18005KT 10SM SCT070 11/01 A3006 RMK AO1
Loading
Personal Weather Stations






























Interactive Weather Map
Tropical Storm Tracking
New forecast layout! Learn more

10-Day Weather Forecast

Advertisements
Track Severe Weather on mobile